Time;durP1;ratioP1;P1;durP2;ratioP2;P2;SDS_P1;SDS_P2;PMS_P1;PMS_P2;Temp;Humidity;BMP_temperature;BMP_pressure;BME280_temperature;BME280_humidity;BME280_pressure;Samples;Min_cycle;Max_cycle;Signal;HPM_P1;HPM_P2
2023/01/15 00:01:23;;;;;;;0.70;0.70;;;;;9.00;94788.00;;;;5033648;28;20247;-64
2023/01/15 00:03:52;;;;;;;0.73;0.73;;;;;9.00;94767.00;;;;5033681;28;20227;-64
2023/01/15 00:06:22;;;;;;;0.60;0.60;;;;;9.00;94770.00;;;;5032947;28;20188;-64
2023/01/15 00:08:50;;;;;;;0.60;0.60;;;;;9.00;94756.00;;;;5033729;28;20197;-63
2023/01/15 00:11:18;;;;;;;0.60;0.60;;;;;9.00;94761.00;;;;5032967;28;20189;-64
2023/01/15 00:13:46;;;;;;;0.70;0.70;;;;;9.00;94757.00;;;;5033388;28;20263;-64
2023/01/15 00:16:16;;;;;;;0.60;0.60;;;9.60;98.30;9.00;94741.00;;;;5032942;28;20225;-64
2023/01/15 00:18:44;;;;;;;0.70;0.70;;;;;9.10;94750.00;;;;5033280;28;20200;-63
2023/01/15 00:21:13;;;;;;;0.50;0.50;;;;;9.10;94760.00;;;;5032850;28;20204;-64
2023/01/15 00:29:14;;;;;;;0.50;0.50;;;;;9.20;94759.00;;;;5037257;28;20181;-63
2023/01/15 00:31:42;;;;;;;0.60;0.60;;;;;9.10;94736.00;;;;5036780;28;20197;-64
2023/01/15 00:34:09;;;;;;;0.60;0.60;;;;;9.10;94733.00;;;;5036705;28;20212;-64
2023/01/15 00:36:39;;;;;;;0.60;0.60;;;;;9.20;94730.00;;;;5036286;28;20722;-65
2023/01/15 00:39:06;;;;;;;0.60;0.60;;;;;9.30;94722.00;;;;5037645;28;20587;-65
2023/01/15 00:41:34;;;;;;;0.80;0.80;;;;;9.30;94754.00;;;;5037032;28;20199;-64
2023/01/15 00:44:01;;;;;;;0.50;0.50;;;;;9.30;94726.00;;;;5037151;28;20217;-63
2023/01/15 00:46:28;;;;;;;0.60;0.60;;;;;9.30;94727.00;;;;5037058;28;20193;-66
2023/01/15 00:48:56;;;;;;;0.60;0.60;;;;;9.30;94728.00;;;;5036421;28;20243;-64
2023/01/15 00:51:23;;;;;;;0.87;0.87;;;;;9.30;94702.00;;;;5037220;28;20250;-64
2023/01/15 00:53:52;;;;;;;0.60;0.60;;;;;9.20;94703.00;;;;5036789;28;20208;-63
2023/01/15 00:56:19;;;;;;;0.57;0.57;;;10.10;94.10;9.40;94704.00;;;;5034956;28;20594;-65
2023/01/15 00:58:47;;;;;;;0.60;0.60;;;10.10;94.60;9.40;94711.00;;;;5036850;28;20200;-65
2023/01/15 01:01:15;;;;;;;0.60;0.60;;;10.10;94.50;9.40;94712.00;;;;5036665;28;20279;-63
2023/01/15 01:03:47;;;;;;;0.67;0.67;;;;;9.40;94695.00;;;;5036111;28;20595;-64
2023/01/15 01:06:15;;;;;;;0.60;0.60;;;;;9.30;94699.00;;;;5036871;28;20185;-64
2023/01/15 01:08:44;;;;;;;0.53;0.53;;;;;9.30;94689.00;;;;5036479;28;20276;-65
2023/01/15 01:11:15;;;;;;;0.60;0.60;;;;;9.40;94688.00;;;;5035970;28;20200;-64
2023/01/15 01:13:44;;;;;;;0.60;0.60;;;;;9.40;94703.00;;;;5036398;28;20224;-63
2023/01/15 01:16:30;;;;;;;0.60;0.60;;;;;9.30;94692.00;;;;5035838;28;20221;-63
2023/01/15 01:18:59;;;;;;;0.60;0.60;;;;;9.30;94694.00;;;;5036387;28;20239;-63
2023/01/15 01:21:27;;;;;;;0.50;0.50;;;;;9.30;94670.00;;;;5036353;28;20193;-66
2023/01/15 01:23:55;;;;;;;0.50;0.50;;;;;9.30;94683.00;;;;5035863;28;20692;-63
2023/01/15 01:26:23;;;;;;;0.60;0.60;;;;;9.30;94702.00;;;;5035683;28;20196;-64
2023/01/15 01:28:52;;;;;;;0.50;0.50;;;;;9.30;94722.00;;;;5034665;28;20283;-64
2023/01/15 01:31:20;;;;;;;0.57;0.57;;;;;9.30;94680.00;;;;5034324;28;20196;-64
2023/01/15 01:33:49;;;;;;;0.50;0.50;;;;;9.20;94690.00;;;;5035700;28;20212;-64
2023/01/15 01:36:17;;;;;;;0.50;0.50;;;;;9.20;94709.00;;;;5035241;28;20263;-63
2023/01/15 01:38:48;;;;;;;0.70;0.70;;;;;9.20;94694.00;;;;5035491;28;20255;-65
2023/01/15 01:41:16;;;;;;;0.60;0.60;;;;;9.30;94663.00;;;;5035689;28;20189;-64
2023/01/15 01:44:03;;;;;;;0.60;0.60;;;;;9.30;94662.00;;;;5035709;28;20224;-64
2023/01/15 01:46:33;;;;;;;0.50;0.50;;;;;9.20;94663.00;;;;5035756;28;20177;-63
2023/01/15 01:49:04;;;;;;;1.87;1.77;;;;;9.20;94649.00;;;;5035528;28;20605;-65
2023/01/15 01:51:35;;;;;;;0.50;0.50;;;;;9.30;94653.00;;;;5034586;28;20663;-63
2023/01/15 01:54:03;;;;;;;0.50;0.50;;;;;9.20;94649.00;;;;5035068;28;20220;-63
2023/01/15 01:56:34;;;;;;;0.60;0.60;;;;;9.10;94627.00;;;;5035768;28;20304;-64
2023/01/15 01:59:06;;;;;;;0.53;0.53;;;9.90;99.70;9.20;94648.00;;;;5035139;28;20192;-63
2023/01/15 02:01:34;;;;;;;0.60;0.60;;;;;9.30;94652.00;;;;5035492;28;20235;-63
2023/01/15 02:04:02;;;;;;;0.50;0.50;;;;;9.30;94635.00;;;;5057409;23;20232;-58
2023/01/15 02:06:30;;;;;;;0.60;0.60;;;;;9.40;94633.00;;;;5054810;28;20185;-58
2023/01/15 02:08:57;;;;;;;0.93;0.93;;;;;9.30;94634.00;;;;5055073;28;20219;-59
2023/01/15 02:11:25;;;;;;;0.60;0.60;;;;;9.30;94624.00;;;;5053708;28;20195;-59
2023/01/15 02:14:00;;;;;;;0.50;0.50;;;;;9.30;94615.00;;;;5054704;28;20690;-59
2023/01/15 02:16:36;;;;;;;0.57;0.57;;;;;9.30;94612.00;;;;5054738;28;20678;-59
2023/01/15 02:19:14;;;;;;;0.50;0.50;;;;;9.40;94638.00;;;;5054772;28;20238;-58
2023/01/15 02:21:51;;;;;;;0.50;0.50;;;;;9.40;94607.00;;;;5055002;28;20249;-60
2023/01/15 02:24:23;;;;;;;0.60;0.60;;;;;9.50;94617.00;;;;5036769;28;20226;-59
2023/01/15 02:27:11;;;;;;;0.67;0.67;;;;;9.50;94602.00;;;;5054666;28;20172;-58
2023/01/15 02:29:51;;;;;;;0.60;0.60;;;10.20;97.60;9.50;94600.00;;;;5054629;28;20184;-59
2023/01/15 02:32:26;;;;;;;0.57;0.57;;;;;9.50;94594.00;;;;5054493;28;20544;-59
2023/01/15 02:34:58;;;;;;;0.60;0.60;;;;;9.60;94586.00;;;;5054317;28;20690;-59
2023/01/15 02:37:28;;;;;;;0.60;0.60;;;;;9.70;94632.00;;;;5054723;28;20204;-59
2023/01/15 02:39:59;;;;;;;0.53;0.53;;;;;9.60;94603.00;;;;5054347;28;20207;-60
2023/01/15 02:42:29;;;;;;;0.50;0.50;;;;;9.60;94602.00;;;;5054638;28;20230;-59
2023/01/15 02:45:01;;;;;;;0.63;0.63;;;;;9.60;94610.00;;;;5054244;28;20261;-59
2023/01/15 02:47:34;;;;;;;0.60;0.60;;;;;9.60;94605.00;;;;5054286;28;20230;-60
2023/01/15 02:50:05;;;;;;;0.60;0.60;;;;;9.50;94602.00;;;;5054474;28;20184;-60
2023/01/15 02:52:37;;;;;;;0.60;0.60;;;;;9.70;94605.00;;;;5054154;28;20184;-59
2023/01/15 02:55:08;;;;;;;0.50;0.50;;;;;9.60;94598.00;;;;5054254;28;20363;-60
2023/01/15 02:57:39;;;;;;;1.13;1.07;;;;;9.60;94593.00;;;;5054454;28;20208;-59
2023/01/15 03:00:14;;;;;;;0.60;0.60;;;10.20;98.80;9.50;94585.00;;;;5054165;28;20598;-59
2023/01/15 03:02:46;;;;;;;0.60;0.60;;;;;9.40;94600.00;;;;5053957;28;20179;-59
2023/01/15 03:05:18;;;;;;;0.60;0.60;;;;;9.50;94590.00;;;;5053803;28;20714;-59
2023/01/15 03:07:50;;;;;;;0.60;0.60;;;;;9.60;94585.00;;;;5054594;28;20177;-59
2023/01/15 03:10:19;;;;;;;0.50;0.50;;;;;9.60;94588.00;;;;5053917;28;20188;-60
2023/01/15 03:13:02;;;;;;;0.60;0.60;;;;;9.70;94576.00;;;;5054211;28;20280;-60
2023/01/15 03:18:31;;;;;;;0.70;0.70;;;;;9.60;94572.00;;;;5054295;28;20190;-60
2023/01/15 03:21:03;;;;;;;0.60;0.60;;;;;9.80;94577.00;;;;5054150;28;20215;-59
2023/01/15 03:23:33;;;;;;;0.60;0.60;;;;;9.70;94561.00;;;;5053773;28;20613;-61
2023/01/15 03:26:01;;;;;;;0.50;0.50;;;;;9.80;94549.00;;;;5054073;28;20180;-59
2023/01/15 03:28:35;;;;;;;0.60;0.60;;;;;9.70;94572.00;;;;5053361;28;20209;-60
2023/01/15 03:31:02;;;;;;;0.60;0.60;;;;;9.60;94552.00;;;;5053347;28;20249;-59
2023/01/15 03:33:30;;;;;;;0.50;0.50;;;;;9.60;94550.00;;;;5053510;28;20278;-60
2023/01/15 03:35:59;;;;;;;0.60;0.60;;;;;9.70;94567.00;;;;5053224;28;20197;-60
2023/01/15 03:38:30;;;;;;;0.60;0.60;;;;;9.80;94552.00;;;;5053157;28;20679;-59
2023/01/15 03:41:06;;;;;;;0.60;0.60;;;;;9.70;94553.00;;;;5035342;28;20235;-60
2023/01/15 03:43:45;;;;;;;0.50;0.50;;;;;9.70;94567.00;;;;5053482;28;20208;-59
2023/01/15 03:46:21;;;;;;;0.60;0.60;;;;;9.70;94554.00;;;;5053344;28;20180;-59
2023/01/15 03:48:57;;;;;;;0.60;0.60;;;;;9.70;94545.00;;;;5053391;28;20228;-59
2023/01/15 03:51:31;;;;;;;0.60;0.60;;;;;9.60;94547.00;;;;5053666;28;20176;-61
2023/01/15 03:54:01;;;;;;;0.60;0.60;;;;;9.60;94566.00;;;;5053841;28;20261;-59
2023/01/15 03:56:35;;;;;;;4.73;0.90;;;;;9.70;94554.00;;;;5052998;28;20226;-60
2023/01/15 03:59:09;;;;;;;0.60;0.60;;;;;9.70;94538.00;;;;5053203;28;20188;-59
2023/01/15 04:01:41;;;;;;;0.50;0.50;;;;;9.60;94535.00;;;;5053015;28;20265;-59
2023/01/15 04:04:10;;;;;;;0.60;0.60;;;;;9.60;94524.00;;;;5053408;28;20228;-59
2023/01/15 04:06:40;;;;;;;0.50;0.50;;;;;9.70;94524.00;;;;5052949;28;20237;-60
2023/01/15 04:09:10;;;;;;;0.60;0.60;;;;;9.70;94545.00;;;;5053429;28;20196;-60
2023/01/15 04:11:38;;;;;;;0.50;0.50;;;;;9.80;94529.00;;;;5053054;28;20188;-60
2023/01/15 04:14:07;;;;;;;0.50;0.50;;;10.40;94.40;9.70;94528.00;;;;5053503;28;20211;-61
2023/01/15 04:16:34;;;;;;;0.50;0.50;;;10.40;94.70;9.80;94511.00;;;;5052907;28;20220;-61
2023/01/15 04:19:02;;;;;;;0.60;0.60;;;;;9.70;94518.00;;;;5052824;28;20192;-59
2023/01/15 04:21:29;;;;;;;0.60;0.60;;;;;9.70;94524.00;;;;5053104;28;20253;-62
2023/01/15 04:23:57;;;;;;;0.60;0.60;;;;;9.70;94529.00;;;;5053431;28;20216;-59
2023/01/15 04:26:24;;;;;;;0.60;0.60;;;;;9.80;94525.00;;;;5053486;28;20184;-59
2023/01/15 04:28:52;;;;;;;0.50;0.50;;;;;9.70;94542.00;;;;5034868;28;20249;-59
2023/01/15 04:31:20;;;;;;;0.60;0.60;;;;;9.70;94527.00;;;;5053417;28;20204;-59
2023/01/15 04:33:48;;;;;;;0.60;0.60;;;;;9.80;94524.00;;;;5053333;28;20216;-60
2023/01/15 04:36:15;;;;;;;0.70;0.70;;;;;9.70;94531.00;;;;5052871;28;20246;-59
2023/01/15 04:38:42;;;;;;;0.57;0.57;;;;;9.70;94552.00;;;;5053369;28;20196;-60
2023/01/15 04:44:07;;;;;;;0.60;0.60;;;;;9.60;94541.00;;;;5051553;28;20219;-60
2023/01/15 04:46:39;;;;;;;0.50;0.50;;;;;9.60;94548.00;;;;5052909;28;20246;-60
2023/01/15 04:49:08;;;;;;;0.57;0.57;;;;;9.80;94545.00;;;;5035183;28;20659;-59
2023/01/15 04:51:36;;;;;;;0.57;0.57;;;;;9.70;94542.00;;;;5034596;28;20677;-59
2023/01/15 04:54:04;;;;;;;0.60;0.60;;;;;9.70;94550.00;;;;5035027;28;20232;-59
2023/01/15 04:56:32;;;;;;;0.60;0.60;;;;;9.80;94555.00;;;;5052688;28;20207;-59
2023/01/15 04:59:01;;;;;;;0.80;0.80;;;;;9.70;94543.00;;;;5052418;28;20667;-60
2023/01/15 05:01:29;;;;;;;0.60;0.60;;;;;9.70;94562.00;;;;5052656;28;20199;-59
2023/01/15 05:03:58;;;;;;;0.50;0.50;;;;;9.70;94567.00;;;;5052748;28;20219;-59
2023/01/15 05:06:25;;;;;;;0.60;0.60;;;;;9.80;94573.00;;;;5052408;28;20192;-58
2023/01/15 05:08:53;;;;;;;0.60;0.60;;;;;9.70;94608.00;;;;5052337;28;20192;-59
2023/01/15 05:11:20;;;;;;;0.60;0.60;;;10.40;96.20;9.10;94601.00;;;;5054208;28;20725;-59
2023/01/15 05:13:47;;;;;;;0.60;0.60;;;;;8.70;94626.00;;;;5056158;28;20231;-60
2023/01/15 05:16:16;;;;;;;0.60;0.60;;;;;8.60;94627.00;;;;5055892;28;20243;-59
2023/01/15 05:18:44;;;;;;;0.60;0.60;;;;;8.40;94624.00;;;;5055965;28;20216;-59
2023/01/15 05:21:20;;;;;;;0.50;0.50;;;;;8.30;94625.00;;;;5055872;28;20188;-59
2023/01/15 05:23:48;;;;;;;0.60;0.60;;;;;8.10;94656.00;;;;5056078;28;20212;-59
2023/01/15 05:26:16;;;;;;;0.60;0.60;;;;;7.80;94672.00;;;;5056013;28;20659;-60
2023/01/15 05:28:44;;;;;;;0.60;0.60;;;;;7.60;94651.00;;;;5055671;28;20238;-59
2023/01/15 05:31:14;;;;;;;0.60;0.60;;;;;7.50;94663.00;;;;5038049;28;20196;-59
2023/01/15 05:33:42;;;;;;;0.83;0.83;;;;;7.30;94652.00;;;;5055491;28;20219;-59
2023/01/15 05:36:11;;;;;;;0.60;0.60;;;;;7.20;94664.00;;;;5055755;28;20200;-59
2023/01/15 05:38:41;;;;;;;0.67;0.67;;;;;7.10;94648.00;;;;5055405;28;20281;-59
2023/01/15 05:43:53;;;;;;;0.57;0.57;;;;;7.00;94668.00;;;;5054372;28;20223;-59
2023/01/15 05:46:20;;;;;;;0.60;0.60;;;;;6.90;94663.00;;;;5055383;28;20188;-59
2023/01/15 05:48:47;;;;;;;0.60;0.60;;;;;6.90;94651.00;;;;5055292;28;20238;-60
2023/01/15 05:51:15;;;;;;;0.60;0.60;;;;;7.00;94648.00;;;;5055562;28;20196;-59
2023/01/15 05:53:44;;;;;;;0.60;0.60;;;;;7.00;94666.00;;;;5055617;28;20208;-59
2023/01/15 05:56:11;;;;;;;0.57;0.57;;;;;6.90;94659.00;;;;5055228;28;20222;-59
2023/01/15 05:58:39;;;;;;;0.60;0.60;;;;;6.70;94650.00;;;;5055022;28;20226;-59
2023/01/15 06:01:08;;;;;;;0.50;0.50;;;;;6.70;94651.00;;;;5055348;28;20188;-59
2023/01/15 06:03:36;;;;;;;0.50;0.50;;;;;6.70;94668.00;;;;5054938;28;20312;-59
2023/01/15 06:06:04;;;;;;;0.60;0.60;;;;;6.70;94661.00;;;;5054991;28;20188;-60
2023/01/15 06:08:32;;;;;;;0.60;0.60;;;;;6.80;94669.00;;;;5055012;28;20250;-59
2023/01/15 06:11:00;;;;;;;0.60;0.60;;;;;6.70;94678.00;;;;5054935;28;20199;-59
2023/01/15 06:13:28;;;;;;;0.50;0.50;;;;;6.50;94677.00;;;;5055054;28;20550;-59
2023/01/15 06:15:55;;;;;;;0.60;0.60;;;;;6.60;94685.00;;;;5036945;28;20199;-59
2023/01/15 06:18:23;;;;;;;0.60;0.60;;;;;6.60;94679.00;;;;5054697;28;20284;-61
2023/01/15 06:20:51;;;;;;;0.50;0.50;;;;;6.60;94690.00;;;;5054796;28;20367;-59
2023/01/15 06:23:19;;;;;;;0.60;0.60;;;;;6.60;94694.00;;;;5053781;28;20222;-59
2023/01/15 06:25:46;;;;;;;0.60;0.60;;;;;6.50;94701.00;;;;5054972;28;20188;-59
2023/01/15 06:28:15;;;;;;;0.60;0.60;;;;;6.50;94719.00;;;;5054553;28;20243;-59
2023/01/15 06:30:42;;;;;;;0.60;0.60;;;;;6.30;94717.00;;;;5054505;28;20203;-59
2023/01/15 06:33:10;;;;;;;0.60;0.60;;;;;6.20;94709.00;;;;5054612;28;20221;-59
2023/01/15 06:35:37;;;;;;;0.60;0.60;;;;;6.10;94711.00;;;;5054421;28;20674;-59
2023/01/15 06:38:04;;;;;;;0.77;0.77;;;;;6.10;94735.00;;;;5054539;28;20625;-59
2023/01/15 06:40:32;;;;;;;0.60;0.60;;;;;5.90;94740.00;;;;5054427;28;20190;-59
2023/01/15 06:48:47;;;;;;;0.70;0.70;;;;;5.90;94731.00;;;;5035507;28;20746;-60
2023/01/15 06:51:18;;;;;;;0.60;0.60;;;;;6.00;94750.00;;;;5054455;28;20592;-60
2023/01/15 06:53:46;;;;;;;0.60;0.60;;;;;5.80;94753.00;;;;5052862;28;20258;-60
2023/01/15 06:56:14;;;;;;;0.60;0.60;;;;;5.80;94767.00;;;;5036221;28;20228;-60
2023/01/15 06:58:42;;;;;;;0.60;0.60;;;;;5.70;94758.00;;;;5054075;28;20227;-60
2023/01/15 07:01:14;;;;;;;0.50;0.50;;;;;5.80;94785.00;;;;5053970;28;20202;-60
2023/01/15 07:03:41;;;;;;;0.50;0.50;;;;;5.80;94769.00;;;;5054191;28;20227;-60
2023/01/15 07:06:10;;;;;;;0.50;0.50;;;;;5.90;94784.00;;;;5054210;28;20608;-60
2023/01/15 07:08:38;;;;;;;0.60;0.60;;;;;5.90;94776.00;;;;5053788;28;20195;-59
2023/01/15 07:11:08;;;;;;;0.60;0.60;;;;;5.80;94763.00;;;;5053751;28;20188;-61
2023/01/15 07:13:36;;;;;;;0.60;0.60;;;;;5.70;94780.00;;;;5053960;28;20289;-60
2023/01/15 07:16:05;;;;;;;0.60;0.60;;;;;5.70;94800.00;;;;5054091;28;20198;-59
2023/01/15 07:18:34;;;;;;;0.60;0.60;;;;;5.80;94802.00;;;;5053574;28;20225;-60
2023/01/15 07:21:02;;;;;;;0.60;0.60;;;;;5.80;94790.00;;;;5053870;28;20198;-60
2023/01/15 07:23:29;;;;;;;0.57;0.57;;;;;5.70;94796.00;;;;5053599;28;20212;-60
2023/01/15 07:25:56;;;;;;;0.60;0.60;;;;;5.30;94807.00;;;;5053655;28;20266;-60
2023/01/15 07:28:24;;;;;;;0.60;0.60;;;;;5.40;94796.00;;;;5053960;28;20258;-60
2023/01/15 07:30:52;;;;;;;0.53;0.53;;;;;5.40;94801.00;;;;5054029;28;20208;-62
2023/01/15 07:33:19;;;;;;;0.60;0.60;;;;;5.20;94810.00;;;;5035282;28;20715;-60
2023/01/15 07:35:48;;;;;;;0.60;0.60;;;;;5.20;94798.00;;;;5053390;28;20203;-61
2023/01/15 07:38:15;;;;;;;0.60;0.60;;;;;5.20;94805.00;;;;5053373;28;20212;-62
2023/01/15 07:40:43;;;;;;;0.60;0.60;;;;;5.10;94833.00;;;;5035488;28;20203;-61
2023/01/15 07:51:27;;;;;;;0.63;0.63;;;;;4.80;94842.00;;;;5053227;28;20207;-60
2023/01/15 07:53:54;;;;;;;0.60;0.60;;;;;4.90;94846.00;;;;5053129;28;20224;-61
2023/01/15 07:56:21;;;;;;;0.60;0.60;;;;;5.00;94838.00;;;;5035459;28;20200;-60
2023/01/15 07:58:49;;;;;;;0.60;0.60;;;;;4.90;94847.00;;;;5053185;28;20216;-61
2023/01/15 08:01:16;;;;;;;0.60;0.60;;;;;4.90;94855.00;;;;5053831;28;20197;-60
2023/01/15 08:03:44;;;;;;;0.60;0.60;;;;;5.00;94859.00;;;;5066180;22;20224;-61
2023/01/15 08:06:11;;;;;;;0.70;0.70;;;;;4.90;94866.00;;;;5033340;28;20652;-59
2023/01/15 08:08:40;;;;;;;0.60;0.60;;;;;4.70;94872.00;;;;5033553;28;20193;-59
2023/01/15 08:16:37;;;;;;;0.60;0.60;;;;;4.60;94853.00;;;;5013340;28;20320;-60
2023/01/15 08:19:04;;;;;;;0.70;0.70;;;;;4.80;94861.00;;;;5013110;28;20221;-60
2023/01/15 08:21:32;;;;;;;0.60;0.60;;;;;4.80;94874.00;;;;5013421;28;20208;-60
2023/01/15 08:24:01;;;;;;;0.60;0.60;;;;;4.90;94893.00;;;;5013496;28;20217;-60
2023/01/15 08:26:28;;;;;;;0.60;0.60;;;;;4.80;94894.00;;;;5013185;28;20224;-61
2023/01/15 08:28:56;;;;;;;0.50;0.50;;;;;4.90;94890.00;;;;5013357;28;20189;-61
2023/01/15 08:31:23;;;;;;;0.70;0.70;;;;;4.80;94899.00;;;;5013198;28;20235;-61
2023/01/15 08:33:50;;;;;;;0.60;0.60;;;;;4.80;94910.00;;;;4995621;28;20580;-60
2023/01/15 08:36:18;;;;;;;0.60;0.60;;;;;5.00;94913.00;;;;5013537;28;20231;-61
2023/01/15 08:38:48;;;;;;;0.60;0.60;;;;;4.70;94915.00;;;;5013378;28;20247;-60
2023/01/15 08:41:17;;;;;;;0.60;0.60;;;;;4.80;94915.00;;;;5013279;28;20196;-60
2023/01/15 08:43:45;;;;;;;0.63;0.63;;;;;4.80;94931.00;;;;5013238;28;20255;-60
2023/01/15 08:46:12;;;;;;;0.60;0.60;;;;;4.90;94949.00;;;;5014807;28;20198;-60
2023/01/15 08:48:40;;;;;;;0.60;0.60;;;;;4.80;94936.00;;;;5017219;28;20192;-60
2023/01/15 08:51:09;;;;;;;0.60;0.60;;;;;4.60;94949.00;;;;5017044;28;20201;-60
2023/01/15 08:53:36;;;;;;;0.60;0.60;;;;;4.70;94939.00;;;;5017448;28;20521;-60
2023/01/15 08:56:04;;;;;;;0.60;0.60;;;;;4.60;94940.00;;;;5016859;28;20194;-59
2023/01/15 08:58:33;;;;;;;0.60;0.60;;;;;4.60;94965.00;;;;5016414;28;20221;-60
2023/01/15 09:01:05;;;;;;;0.70;0.70;;;;;4.50;94959.00;;;;5016442;28;20189;-59
2023/01/15 09:03:33;;;;;;;0.60;0.60;;;;;4.50;94953.00;;;;5016802;28;20264;-60
2023/01/15 09:06:01;;;;;;;0.60;0.60;;;;;4.70;94940.00;;;;5016315;28;20680;-59
2023/01/15 09:08:29;;;;;;;0.60;0.60;;;;;4.70;94979.00;;;;5016368;28;20194;-60
2023/01/15 09:10:58;;;;;;;0.60;0.60;;;;;4.70;94955.00;;;;5016527;28;20189;-60
2023/01/15 09:13:25;;;;;;;0.60;0.60;;;;;4.60;94960.00;;;;5016338;28;20711;-60
2023/01/15 09:15:54;;;;;;;0.53;0.53;;;;;4.50;94970.00;;;;5016212;28;20243;-60
2023/01/15 09:18:21;;;;;;;0.60;0.60;;;;;4.50;94990.00;;;;5016156;28;20220;-60
2023/01/15 09:20:49;;;;;;;0.60;0.60;;;;;4.50;95016.00;;;;4998633;28;20274;-60
2023/01/15 09:23:17;;;;;;;0.80;0.80;;;;;4.50;95018.00;;;;5016134;28;20194;-59
2023/01/15 09:25:52;;;;;;;0.60;0.60;;;;;4.40;95012.00;;;;5016341;28;20220;-60
2023/01/15 09:28:22;;;;;;;0.50;0.50;;;;;4.30;95014.00;;;;5016688;28;20177;-59
2023/01/15 09:30:50;;;;;;;0.60;0.60;;;;;4.20;95017.00;;;;4998349;28;20223;-59
2023/01/15 09:33:18;;;;;;;0.60;0.60;;;;;4.20;95015.00;;;;5015883;28;20284;-60
2023/01/15 09:35:46;;;;;;;0.60;0.60;;;;;4.20;95004.00;;;;5016067;28;20213;-60
2023/01/15 09:38:14;;;;;;;0.70;0.70;;;;;4.30;95004.00;;;;5016015;28;20224;-60
2023/01/15 09:40:48;;;;;;;0.70;0.70;;;;;4.40;94999.00;;;;4998249;28;20198;-60
2023/01/15 09:43:27;;;;;;;0.60;0.60;;;;;4.30;95014.00;;;;4998288;28;20305;-59
2023/01/15 09:45:59;;;;;;;0.70;0.70;;;;;4.20;95027.00;;;;5016058;28;20173;-60
2023/01/15 09:48:42;;;;;;;0.60;0.60;;;;;4.20;95040.00;;;;5015930;28;20239;-60
2023/01/15 09:51:19;;;;;;;0.70;0.70;;;;;4.10;95033.00;;;;5015904;28;20190;-60
2023/01/15 09:54:01;;;;;;;0.60;0.60;;;;;4.20;95036.00;;;;5015585;28;20640;-60
2023/01/15 09:56:32;;;;;;;0.63;0.63;;;;;4.20;95035.00;;;;5015639;28;20185;-60
2023/01/15 09:59:03;;;;;;;0.70;0.70;;;;;4.20;95036.00;;;;5015675;28;20613;-61
2023/01/15 10:01:33;;;;;;;0.70;0.70;;;;;4.10;95044.00;;;;5015526;28;20170;-61
2023/01/15 10:04:07;;;;;;;0.60;0.60;;;;;4.10;95046.00;;;;4997646;28;20327;-60
2023/01/15 10:06:42;;;;;;;0.60;0.60;;;;;4.10;95045.00;;;;5015637;28;20178;-60
2023/01/15 10:09:14;;;;;;;0.60;0.60;;;;;3.80;95054.00;;;;5015481;28;20182;-60
2023/01/15 10:14:42;;;;;;;0.60;0.60;;;;;4.00;95059.00;;;;5015285;28;20218;-62
2023/01/15 10:17:25;;;;;;;0.60;0.60;;;;;3.90;95074.00;;;;5015270;28;20514;-60
2023/01/15 10:19:55;;;;;;;0.60;0.60;;;;;3.80;95080.00;;;;5014986;28;20212;-60
2023/01/15 10:22:41;;;;;;;0.60;0.60;;;;;3.90;95088.00;;;;5015878;28;20189;-60
2023/01/15 10:25:15;;;;;;;0.80;0.80;;;;;3.70;95078.00;;;;5015062;28;20222;-60
2023/01/15 10:27:48;;;;;;;0.60;0.60;;;;;3.80;95083.00;;;;5015429;28;20177;-60
2023/01/15 10:30:23;;;;;;;0.83;0.83;;;;;3.70;95084.00;;;;4997265;28;20286;-60
2023/01/15 10:32:57;;;;;;;0.67;0.67;;;;;3.70;95080.00;;;;5015048;28;20203;-60
2023/01/15 10:35:31;;;;;;;0.60;0.60;;;;;3.60;95087.00;;;;5015018;28;20245;-60
2023/01/15 10:38:11;;;;;;;0.60;0.60;;;;;3.70;95080.00;;;;5014716;28;20193;-60
2023/01/15 10:41:05;;;;;;;0.57;0.57;;;;;3.70;95082.00;;;;5014971;28;20259;-60
2023/01/15 10:43:43;;;;;;;0.60;0.60;;;;;3.90;95089.00;;;;5014580;28;20189;-61
2023/01/15 10:46:14;;;;;;;0.60;0.60;;;;;3.70;95111.00;;;;5014641;28;20188;-60
2023/01/15 10:48:45;;;;;;;0.60;0.60;;;;;3.70;95117.00;;;;5014774;28;20269;-60
2023/01/15 10:51:18;;;;;;;0.70;0.70;;;;;3.80;95125.00;;;;5014982;28;20214;-60
2023/01/15 10:53:50;;;;;;;0.60;0.60;;;;;3.40;95110.00;;;;5014849;28;20185;-61
2023/01/15 10:56:29;;;;;;;0.60;0.60;;;;;3.40;95116.00;;;;5014358;28;20216;-61
2023/01/15 10:59:04;;;;;;;0.60;0.60;;;;;3.40;95132.00;;;;5014286;28;20248;-59
2023/01/15 11:01:32;;;;;;;0.67;0.67;;;;;3.30;95124.00;;;;5014794;28;20209;-60
2023/01/15 11:03:59;;;;;;;0.70;0.70;;;;;3.20;95133.00;;;;5014391;28;20222;-60
2023/01/15 11:06:33;;;;;;;0.60;0.60;;;;;2.90;95142.00;;;;5014151;28;20170;-59
2023/01/15 11:09:01;;;;;;;0.60;0.60;;;;;2.70;95176.00;;;;5013834;28;20199;-59
2023/01/15 11:19:58;;;;;;;0.60;0.60;;;;;2.50;95186.00;;;;5014180;28;20212;-59
2023/01/15 11:22:28;;;;;;;0.60;0.60;;;;;2.30;95171.00;;;;5014220;28;20219;-60
2023/01/15 11:24:58;;;;;;;0.70;0.70;;;;;2.40;95183.00;;;;5013889;28;20220;-59
2023/01/15 11:27:30;;;;;;;0.60;0.60;;;;;2.30;95173.00;;;;5014113;28;20587;-60
2023/01/15 11:30:00;;;;;;;0.60;0.60;;;;;2.20;95181.00;;;;5013774;28;20177;-60
2023/01/15 11:32:31;;;;;;;0.60;0.60;;;;;2.50;95179.00;;;;4996043;28;20192;-62
2023/01/15 11:34:59;;;;;;;0.60;0.60;;;;;2.40;95197.00;;;;5014147;28;20242;-61
2023/01/15 11:37:31;;;;;;;0.60;0.60;;;;;2.30;95166.00;;;;5013783;28;20205;-59
2023/01/15 11:40:06;;;;;;;0.60;0.60;;;;;2.30;95177.00;;;;5013909;28;20197;-62
2023/01/15 11:51:07;;;;;;;0.60;0.60;;;;;2.30;95190.00;;;;5013594;28;20184;-60
2023/01/15 11:53:45;;;;;;;0.70;0.70;;;;;2.30;95177.00;;;;5013815;28;20238;-58
2023/01/15 11:56:15;;;;;;;0.70;0.70;;;;;2.60;95173.00;;;;5014137;28;20223;-59
2023/01/15 11:58:47;;;;;;;0.63;0.63;;;;;2.70;95168.00;;;;4995970;28;20193;-59
2023/01/15 12:01:21;;;;;;;0.60;0.60;;;;;2.70;95181.00;;;;5013844;28;20588;-59
2023/01/15 12:03:48;;;;;;;0.60;0.60;;;;;2.50;95174.00;;;;5013416;28;20579;-59
2023/01/15 12:06:19;;;;;;;0.60;0.60;;;;;2.80;95178.00;;;;4995898;28;20201;-59
2023/01/15 12:08:51;;;;;;;0.60;0.60;;;;;2.60;95175.00;;;;5013826;28;20210;-59
2023/01/15 12:11:34;;;;;;;0.70;0.70;;;;;2.50;95185.00;;;;5013367;28;20547;-59
2023/01/15 12:14:26;;;;;;;0.70;0.70;;;;;2.50;95201.00;;;;5013497;28;20298;-59
2023/01/15 12:17:02;;;;;;;0.80;0.80;;;;;2.60;95174.00;;;;4995981;28;20292;-59
2023/01/15 12:19:37;;;;;;;0.60;0.60;;;;;2.50;95183.00;;;;5013645;28;20180;-59
2023/01/15 12:22:24;;;;;;;0.60;0.60;;;;;2.60;95165.00;;;;5016796;28;20195;-59
2023/01/15 12:25:13;;;;;;;0.60;0.60;;;;;2.50;95162.00;;;;5017569;28;20707;-60
2023/01/15 12:27:55;;;;;;;1.63;1.53;;;;;2.30;95156.00;;;;5015228;28;20576;-59
2023/01/15 12:30:30;;;;;;;0.63;0.63;;;;;2.50;95151.00;;;;5017236;28;20204;-59
2023/01/15 12:33:07;;;;;;;0.60;0.60;;;;;2.50;95148.00;;;;5018018;28;20590;-60
2023/01/15 12:35:41;;;;;;;0.73;0.73;;;;;2.60;95137.00;;;;5017162;28;20215;-60
2023/01/15 12:38:16;;;;;;;0.70;0.70;;;;;2.70;95145.00;;;;5017401;28;20272;-60
2023/01/15 12:40:51;;;;;;;0.70;0.70;;;;;2.70;95148.00;;;;5017288;28;20184;-60
2023/01/15 12:46:15;;;;;;;0.70;0.70;;;;;2.90;95185.00;;;;5016988;28;20193;-70
2023/01/15 12:48:53;;;;;;;0.60;0.60;;;;;2.90;95174.00;;;;5016940;28;20184;-60
2023/01/15 12:51:27;;;;;;;0.60;0.60;;;;;3.10;95169.00;;;;5017201;28;20184;-60
2023/01/15 12:54:02;;;;;;;0.60;0.60;;;;;3.10;95168.00;;;;5017172;28;20603;-60
2023/01/15 12:56:41;;;;;;;0.60;0.60;;;;;2.90;95173.00;;;;5016905;28;20239;-60
2023/01/15 12:59:20;;;;;;;0.60;0.60;;;;;3.20;95178.00;;;;5016798;28;20659;-60
2023/01/15 13:01:55;;;;;;;0.60;0.60;;;;;3.20;95202.00;;;;5016800;28;20193;-60
2023/01/15 13:04:30;;;;;;;0.60;0.60;;;;;3.20;95188.00;;;;5016531;28;20232;-60
2023/01/15 13:07:03;;;;;;;1.33;0.63;;;;;3.20;95188.00;;;;4999900;28;20203;-61
2023/01/15 13:09:38;;;;;;;2.53;1.80;;;;;3.20;95195.00;;;;5017058;28;20759;-60
2023/01/15 13:12:13;;;;;;;0.60;0.60;;;;;3.20;95197.00;;;;5017105;28;20661;-57
2023/01/15 13:14:41;;;;;;;0.60;0.60;;;;;3.30;95205.00;;;;5016473;28;20580;-58
2023/01/15 13:17:19;;;;;;;1.07;1.07;;;;;3.30;95191.00;;;;5016667;28;20193;-62
2023/01/15 13:20:05;;;;;;;0.60;0.60;;;;;4.30;95106.00;;;;5016660;28;20274;-58
2023/01/15 13:22:39;;;;;;;0.67;0.67;;;;;7.20;95133.00;;;;5016649;28;20188;-64
2023/01/15 13:25:56;;;;;;;0.57;0.57;;;8.60;53.70;9.90;95159.00;;;;5016246;28;20219;-61
2023/01/15 13:28:38;;;;;;;0.60;0.60;;;;;13.30;95117.00;;;;4987980;28;20213;-68
2023/01/15 13:31:16;;;;;;;0.43;0.43;;;;;12.20;95124.00;;;;5016076;28;20209;-63
2023/01/15 13:33:46;;;;;;;0.90;0.90;;;;;12.80;95218.00;;;;5016181;28;20181;-60
2023/01/15 13:36:18;;;;;;;0.50;0.50;;;;;9.30;95193.00;;;;5016142;28;20188;-62
2023/01/15 13:38:49;;;;;;;0.50;0.50;;;;;9.20;95122.00;;;;5016399;28;20249;-61